Time;durP1;ratioP1;P1;durP2;ratioP2;P2;SDS_P1;SDS_P2;PMS_P1;PMS_P2;Temp;Humidity;BMP_temperature;BMP_pressure;BME280_temperature;BME280_humidity;BME280_pressure;Samples;Min_cycle;Max_cycle;Signal;HPM_P1;HPM_P2
2021/05/18 00:00:35;;;;;;;11.37;7.50;;;9.50;99.90;;;;;;4453047;28;657032;-75
2021/05/18 00:03:22;;;;;;;11.20;7.80;;;9.50;99.90;;;;;;4439891;28;656103;-75
2021/05/18 00:06:10;;;;;;;15.67;7.60;;;9.50;99.90;;;;;;4449200;28;657014;-75
2021/05/18 00:12:10;;;;;;;12.47;7.83;;;9.50;99.90;;;;;;4345878;28;656768;-75
2021/05/18 00:14:57;;;;;;;11.90;7.77;;;9.50;99.90;;;;;;4375072;28;656315;-75
2021/05/18 00:17:45;;;;;;;12.80;7.72;;;9.50;99.90;;;;;;4389913;28;656909;-75
2021/05/18 00:20:32;;;;;;;11.30;7.00;;;9.50;99.90;;;;;;4393338;28;657241;-75
2021/05/18 00:23:19;;;;;;;9.00;6.27;;;9.40;99.90;;;;;;4369942;28;656975;-75
2021/05/18 00:26:08;;;;;;;11.50;6.73;;;9.40;99.90;;;;;;4390109;28;655298;-76
2021/05/18 00:28:56;;;;;;;9.57;6.90;;;9.40;99.90;;;;;;4362306;28;656688;-76
2021/05/18 00:31:43;;;;;;;10.70;7.30;;;9.30;99.90;;;;;;4360650;28;655615;-76
2021/05/18 00:34:30;;;;;;;13.53;7.97;;;9.30;99.90;;;;;;4386426;28;656870;-76
2021/05/18 00:37:18;;;;;;;12.50;7.73;;;9.30;99.90;;;;;;4367195;28;656507;-74
2021/05/18 00:40:06;;;;;;;11.63;8.10;;;9.30;99.90;;;;;;4389656;28;657265;-75
2021/05/18 00:42:53;;;;;;;10.17;6.37;;;9.30;99.90;;;;;;4366643;28;656959;-75
2021/05/18 00:45:42;;;;;;;12.77;7.50;;;9.30;99.90;;;;;;4385697;28;656464;-75
2021/05/18 00:48:29;;;;;;;11.60;7.10;;;9.40;99.90;;;;;;4371023;28;657027;-75
2021/05/18 00:51:16;;;;;;;10.77;6.80;;;9.30;99.90;;;;;;4382961;28;656613;-76
2021/05/18 00:54:06;;;;;;;14.10;7.37;;;9.30;99.90;;;;;;4410543;28;656742;-76
2021/05/18 00:59:58;;;;;;;11.73;7.40;;;9.30;99.90;;;;;;4403407;28;657088;-74
2021/05/18 01:02:48;;;;;;;11.73;8.03;;;9.30;99.90;;;;;;4433785;28;657177;-75
2021/05/18 01:08:42;;;;;;;15.57;8.10;;;9.30;99.90;;;;;;4398719;28;656565;-75
2021/05/18 01:11:30;;;;;;;15.17;9.40;;;9.30;99.90;;;;;;4419057;28;656809;-75
2021/05/18 01:14:18;;;;;;;14.17;8.53;;;9.30;99.90;;;;;;4426690;28;656356;-75
2021/05/18 01:17:05;;;;;;;13.13;8.83;;;9.30;99.90;;;;;;4441284;28;657217;-74
2021/05/18 01:19:53;;;;;;;16.60;11.27;;;9.30;99.90;;;;;;4428384;28;656983;-74
2021/05/18 01:22:45;;;;;;;15.80;10.40;;;9.20;99.90;;;;;;4449934;28;658782;-75
2021/05/18 01:25:32;;;;;;;19.40;10.90;;;9.30;99.90;;;;;;4396307;28;658021;-74
2021/05/18 01:28:20;;;;;;;16.53;10.43;;;9.30;99.90;;;;;;4443869;28;657120;-74
2021/05/18 01:31:08;;;;;;;13.53;10.30;;;9.30;99.90;;;;;;4426069;28;657557;-74
2021/05/18 01:33:55;;;;;;;15.23;11.57;;;9.30;99.90;;;;;;4440970;28;658745;-74
2021/05/18 01:36:43;;;;;;;16.83;11.37;;;9.30;99.90;;;;;;4431084;28;658373;-74
2021/05/18 01:42:47;;;;;;;15.53;10.90;;;9.30;99.90;;;;;;4394186;28;657715;-75
2021/05/18 01:45:34;;;;;;;13.90;9.50;;;9.30;99.90;;;;;;4422687;28;657845;-75
2021/05/18 01:48:21;;;;;;;14.50;9.97;;;9.30;99.90;;;;;;4450939;28;656461;-74
2021/05/18 01:51:09;;;;;;;13.53;9.07;;;9.30;99.90;;;;;;4429034;28;656322;-75
2021/05/18 01:53:57;;;;;;;13.85;9.05;;;9.30;99.90;;;;;;4440979;28;656713;-74
2021/05/18 01:56:50;;;;;;;14.20;9.47;;;9.30;99.90;;;;;;4429039;28;657167;-75
2021/05/18 01:59:38;;;;;;;12.00;8.57;;;9.30;99.90;;;;;;4408091;28;657433;-74
2021/05/18 02:02:25;;;;;;;11.00;7.97;;;9.30;99.90;;;;;;4446668;28;657669;-75
2021/05/18 02:05:14;;;;;;;12.57;9.03;;;9.30;99.90;;;;;;4432506;28;656797;-75
2021/05/18 02:08:02;;;;;;;14.10;8.77;;;9.30;99.90;;;;;;4440218;28;655979;-75
2021/05/18 02:10:49;;;;;;;13.70;9.07;;;9.30;99.90;;;;;;4408374;28;657572;-75
2021/05/18 02:13:45;;;;;;;12.90;8.47;;;9.30;99.90;;;;;;4446306;28;656548;-75
2021/05/18 02:16:35;;;;;;;11.60;7.97;;;9.20;99.90;;;;;;4409127;28;656707;-74
2021/05/18 02:19:34;;;;;;;10.60;7.57;;;9.20;99.90;;;;;;4427419;28;656959;-75
2021/05/18 02:25:27;;;;;;;15.13;8.23;;;9.30;99.90;;;;;;4345833;28;656801;-75
2021/05/18 02:28:14;;;;;;;11.87;8.10;;;9.20;99.90;;;;;;4357295;28;657253;-74
2021/05/18 02:31:02;;;;;;;12.63;8.67;;;9.20;99.90;;;;;;4373108;28;656500;-74
2021/05/18 02:34:01;;;;;;;14.53;8.07;;;9.20;99.90;;;;;;4356305;28;657216;-74
2021/05/18 02:36:49;;;;;;;11.83;7.83;;;9.20;99.90;;;;;;4357308;28;657450;-75
2021/05/18 02:39:36;;;;;;;11.37;7.07;;;9.20;99.90;;;;;;4378742;28;657030;-74
2021/05/18 02:42:24;;;;;;;10.67;7.27;;;9.20;99.90;;;;;;4356439;28;656816;-74
2021/05/18 02:45:17;;;;;;;10.53;7.73;;;9.20;99.90;;;;;;4378371;28;656382;-73
2021/05/18 02:51:20;;;;;;;10.77;7.47;;;9.20;99.90;;;;;;4309167;28;656606;-73
2021/05/18 02:54:11;;;;;;;11.00;7.17;;;9.20;99.90;;;;;;4312960;28;656676;-73
2021/05/18 02:57:00;;;;;;;10.90;7.60;;;9.20;99.90;;;;;;4308032;28;657298;-73
2021/05/18 02:59:47;;;;;;;10.23;7.77;;;9.20;99.90;;;;;;4308728;28;656112;-73
2021/05/18 03:02:35;;;;;;;11.67;7.57;;;9.20;99.90;;;;;;4331790;28;656427;-73
2021/05/18 03:05:25;;;;;;;9.67;7.80;;;9.20;99.90;;;;;;4342138;28;656451;-72
2021/05/18 03:08:12;;;;;;;11.77;7.83;;;9.20;99.90;;;;;;4383590;28;656101;-73
2021/05/18 03:11:00;;;;;;;12.53;7.17;;;9.20;99.90;;;;;;4398823;28;657121;-73
2021/05/18 03:13:47;;;;;;;12.03;8.13;;;9.20;99.90;;;;;;4372126;28;657049;-72
2021/05/18 03:16:36;;;;;;;12.60;7.83;;;9.20;99.90;;;;;;4398830;28;656550;-73
2021/05/18 03:19:24;;;;;;;9.30;7.20;;;9.20;99.90;;;;;;4362131;28;656701;-73
2021/05/18 03:22:12;;;;;;;11.00;8.00;;;9.20;99.90;;;;;;4396215;28;655385;-72
2021/05/18 03:24:59;;;;;;;12.67;7.77;;;9.20;99.90;;;;;;4372941;28;656991;-72
2021/05/18 03:27:46;;;;;;;10.55;7.28;;;9.20;99.90;;;;;;4398406;28;656309;-73
2021/05/18 03:30:48;;;;;;;9.07;6.37;;;9.20;99.90;;;;;;4405121;28;657005;-73
2021/05/18 03:36:41;;;;;;;9.63;6.93;;;9.20;99.90;;;;;;4429344;28;657094;-73
2021/05/18 03:39:29;;;;;;;9.53;6.97;;;9.30;99.90;;;;;;4421337;28;655687;-73
2021/05/18 03:42:19;;;;;;;10.17;7.27;;;9.30;99.90;;;;;;4449832;28;655939;-73
2021/05/18 03:45:13;;;;;;;9.90;6.47;;;9.30;99.90;;;;;;4417141;28;656431;-73
2021/05/18 03:54:19;;;;;;;9.90;7.23;;;9.30;99.90;;;;;;4429666;28;657066;-73
2021/05/18 04:03:20;;;;;;;9.33;6.57;;;9.20;99.90;;;;;;4350826;28;655823;-73
2021/05/18 04:12:44;;;;;;;10.07;7.37;;;9.30;99.90;;;;;;4376571;28;655924;-73
2021/05/18 04:18:42;;;;;;;8.33;6.13;;;9.30;99.90;;;;;;4371952;28;656732;-74
2021/05/18 04:21:43;;;;;;;8.03;6.13;;;9.30;99.90;;;;;;4363021;28;655536;-73
2021/05/18 04:40:53;;;;;;;9.50;6.20;;;9.40;99.90;;;;;;4287369;29;655679;-74
2021/05/18 04:53:07;;;;;;;10.63;6.70;;;9.40;99.90;;;;;;4316868;28;655325;-73
2021/05/18 04:59:06;;;;;;;7.97;5.87;;;9.40;99.90;;;;;;4297319;28;655536;-73
2021/05/18 05:02:07;;;;;;;8.17;5.67;;;9.50;99.90;;;;;;4282032;28;656225;-74
2021/05/18 05:08:01;;;;;;;9.63;6.27;;;9.50;99.90;;;;;;4319339;28;655559;-73
2021/05/18 05:17:10;;;;;;;9.67;6.17;;;9.50;99.90;;;;;;4217806;29;656700;-72
2021/05/18 05:19:57;;;;;;;9.73;7.00;;;9.50;99.90;;;;;;4253731;29;655755;-73
2021/05/18 05:22:44;;;;;;;11.07;7.63;;;9.50;99.90;;;;;;4264245;29;656271;-73
2021/05/18 05:25:32;;;;;;;15.27;8.13;;;9.50;99.90;;;;;;4258457;29;656741;-73
2021/05/18 05:28:20;;;;;;;14.83;8.57;;;9.50;99.90;;;;;;4234576;29;657769;-73
2021/05/18 05:31:08;;;;;;;14.20;8.53;;;9.50;99.90;;;;;;4248516;29;656809;-74
2021/05/18 05:33:56;;;;;;;12.07;8.23;;;9.60;99.90;;;;;;4283119;29;657160;-73
2021/05/18 05:36:43;;;;;;;15.53;9.63;;;9.60;99.90;;;;;;4272416;29;656316;-73
2021/05/18 05:39:31;;;;;;;13.33;8.40;;;9.60;99.90;;;;;;4311481;28;657006;-73
2021/05/18 05:42:18;;;;;;;15.87;8.80;;;9.50;99.90;;;;;;4306686;28;656753;-73
2021/05/18 05:45:07;;;;;;;14.27;6.80;;;9.50;99.90;;;;;;4328076;28;657376;-72
2021/05/18 05:47:54;;;;;;;12.60;8.07;;;9.60;99.90;;;;;;4297947;28;657115;-73
2021/05/18 05:50:43;;;;;;;13.47;7.90;;;9.60;99.90;;;;;;4323166;28;657678;-73
2021/05/18 05:53:30;;;;;;;11.83;8.20;;;9.60;99.90;;;;;;4320762;28;657255;-67
2021/05/18 05:56:17;;;;;;;14.83;8.83;;;9.60;99.90;;;;;;4378606;28;657171;-68
2021/05/18 05:59:08;;;;;;;14.53;8.70;;;9.60;99.90;;;;;;4445483;28;657476;-66
2021/05/18 06:01:56;;;;;;;19.23;8.50;;;9.50;99.90;;;;;;4424283;28;657306;-67
2021/05/18 06:04:44;;;;;;;15.10;7.83;;;9.50;99.90;;;;;;4419493;28;656579;-67
2021/05/18 06:07:33;;;;;;;12.50;7.60;;;9.50;99.90;;;;;;4447727;28;656888;-67
2021/05/18 06:10:23;;;;;;;12.90;7.20;;;9.50;99.90;;;;;;4423877;28;657237;-67
2021/05/18 06:35:18;;;;;;;8.47;6.63;;;10.10;99.90;;;;;;4350600;28;656543;-67
2021/05/18 06:52:20;;;;;;;5.90;3.67;;;10.10;99.90;;;;;;4343079;28;656394;-67
2021/05/18 06:55:09;;;;;;;6.03;3.80;;;10.10;99.90;;;;;;4360923;28;656673;-68
2021/05/18 06:58:02;;;;;;;5.15;3.90;;;10.10;99.90;;;;;;4379317;28;656467;-66
2021/05/18 07:00:50;;;;;;;8.23;4.43;;;10.10;99.90;;;;;;4373858;28;657805;-67
2021/05/18 07:03:42;;;;;;;12.60;3.83;;;10.20;99.90;;;;;;4413957;28;656482;-68
2021/05/18 07:06:42;;;;;;;4.65;3.22;;;10.20;99.90;;;;;;4413849;28;658352;-67
2021/05/18 07:09:31;;;;;;;3.57;2.63;;;10.20;99.90;;;;;;4388120;28;657048;-67
2021/05/18 07:12:20;;;;;;;5.07;3.40;;;10.20;99.90;;;;;;4429586;28;656953;-67
2021/05/18 07:15:27;;;;;;;8.53;3.43;;;10.20;99.90;;;;;;4432772;28;656391;-68
2021/05/18 07:21:47;;;;;;;6.63;2.87;;;10.30;99.90;;;;;;4427603;28;657437;-66
2021/05/18 07:24:35;;;;;;;4.63;3.33;;;10.30;99.90;;;;;;4432267;28;656638;-66
2021/05/18 07:27:26;;;;;;;5.03;3.42;;;10.30;99.90;;;;;;4431899;28;656924;-68
2021/05/18 07:30:45;;;;;;;7.93;3.50;;;10.40;99.90;;;;;;4432021;28;656598;-67
2021/05/18 07:33:32;;;;;;;4.60;3.30;;;10.50;99.90;;;;;;4413406;28;656632;-67
2021/05/18 07:37:06;;;;;;;11.67;3.40;;;10.70;99.90;;;;;;4454939;28;656791;-67
2021/05/18 07:39:54;;;;;;;6.23;4.00;;;10.70;99.90;;;;;;4412277;28;657493;-67
2021/05/18 08:11:43;;;;;;;11.07;8.33;;;11.00;99.90;;;;;;4331635;28;657952;-67
2021/05/18 08:14:33;;;;;;;12.30;8.37;;;10.90;99.90;;;;;;4338218;28;657411;-66
2021/05/18 08:17:24;;;;;;;13.33;10.00;;;10.80;99.90;;;;;;4337629;28;658036;-66
2021/05/18 08:20:27;;;;;;;13.40;10.03;;;10.70;99.90;;;;;;4336644;28;659221;-67
2021/05/18 10:22:39;;;;;;;12.83;9.90;;;11.40;99.90;;;;;;4348245;28;659097;-66
2021/05/18 10:35:43;;;;;;;16.10;12.13;;;11.40;99.90;;;;;;4287750;29;658316;-67
2021/05/18 10:38:36;;;;;;;16.27;12.70;;;11.60;99.90;;;;;;4284355;28;659770;-66
2021/05/18 10:45:12;;;;;;;16.83;12.77;;;12.00;99.90;;;;;;4293618;28;658940;-66
2021/05/18 10:48:23;;;;;;;13.97;12.00;;;12.00;99.90;;;;;;4277253;28;658736;-67
2021/05/18 10:51:34;;;;;;;17.23;13.13;;;12.00;99.90;;;;;;4315022;28;658855;-67
2021/05/18 10:54:26;;;;;;;16.67;13.33;;;12.00;99.90;;;;;;4314284;28;659228;-66
2021/05/18 10:57:20;;;;;;;18.37;13.70;;;11.90;99.90;;;;;;4294871;28;659102;-66
2021/05/18 11:00:11;;;;;;;19.77;15.63;;;11.80;99.90;;;;;;4312535;28;658644;-67
2021/05/18 11:02:58;;;;;;;18.87;14.70;;;11.80;99.90;;;;;;4363651;28;659126;-67
2021/05/18 11:05:45;;;;;;;19.87;13.43;;;11.70;99.90;;;;;;4414610;28;658365;-66
2021/05/18 11:08:34;;;;;;;16.37;13.20;;;11.50;99.90;;;;;;4423266;28;658782;-68
2021/05/18 11:11:26;;;;;;;14.53;11.03;;;11.70;99.90;;;;;;4430899;28;658632;-66
2021/05/18 11:14:13;;;;;;;15.77;11.20;;;12.00;99.90;;;;;;4406031;28;659177;-66
2021/05/18 11:17:11;;;;;;;15.63;10.87;;;12.00;99.90;;;;;;4448422;28;659504;-66
2021/05/18 11:20:03;;;;;;;13.17;9.90;;;12.00;99.90;;;;;;4405083;28;658646;-67
2021/05/18 11:26:06;;;;;;;20.70;9.47;;;12.10;99.90;;;;;;4403369;28;658931;-66
2021/05/18 11:28:55;;;;;;;12.60;10.17;;;12.30;99.90;;;;;;4427447;28;657423;-65
2021/05/18 11:31:45;;;;;;;14.25;9.80;;;12.70;99.90;;;;;;4429443;28;658946;-68
2021/05/18 11:34:32;;;;;;;15.33;9.57;;;13.00;99.90;;;;;;4439518;28;657560;-67
2021/05/18 11:44:44;;;;;;;14.32;8.75;;;13.10;99.90;;;;;;4379443;28;657695;-66
2021/05/18 11:47:31;;;;;;;11.80;8.73;;;12.90;99.90;;;;;;4430318;28;657441;-66
2021/05/18 11:50:23;;;;;;;10.00;8.30;;;12.90;99.90;;;;;;4411707;28;657614;-66
2021/05/18 11:53:25;;;;;;;13.90;8.18;;;12.80;99.90;;;;;;4408093;28;658404;-66
2021/05/18 11:56:24;;;;;;;12.43;7.73;;;12.80;99.90;;;;;;4410701;28;657834;-67
2021/05/18 11:59:12;;;;;;;10.47;8.17;;;13.00;99.90;;;;;;4407116;28;657506;-66
2021/05/18 12:02:01;;;;;;;13.17;7.97;;;13.40;99.90;;;;;;4411874;28;657717;-66
2021/05/18 12:04:50;;;;;;;12.33;7.90;;;13.50;99.90;;;;;;4411885;28;657304;-66
2021/05/18 12:07:38;;;;;;;8.87;7.27;;;13.60;99.90;;;;;;4419219;28;658049;-67
2021/05/18 12:10:55;;;;;;;7.63;6.73;;;13.60;99.90;;;;;;4431351;28;656793;-66
2021/05/18 12:13:43;;;;;;;13.17;8.13;;;13.80;99.90;;;;;;4400903;28;656496;-67
2021/05/18 12:16:30;;;;;;;10.90;6.83;;;14.10;99.90;;;;;;4469787;28;658363;-66
2021/05/18 12:19:19;;;;;;;8.30;6.07;;;14.50;99.90;;;;;;4446586;28;657690;-66
2021/05/18 12:22:07;;;;;;;7.10;4.97;;;14.40;99.90;;;;;;4467064;28;656521;-66
2021/05/18 12:24:58;;;;;;;7.10;4.83;;;14.40;99.90;;;;;;4433641;28;657950;-66
2021/05/18 12:27:45;;;;;;;6.17;4.13;;;14.60;99.90;;;;;;4421046;28;657489;-66
2021/05/18 12:30:40;;;;;;;5.50;4.73;;;14.60;99.90;;;;;;4421967;28;656330;-67
2021/05/18 12:33:35;;;;;;;6.83;4.17;;;14.50;99.90;;;;;;4404699;28;656496;-66
2021/05/18 12:36:24;;;;;;;8.07;4.33;;;14.60;99.90;;;;;;4438054;28;656462;-67
2021/05/18 12:39:17;;;;;;;4.97;4.20;;;14.90;99.90;;;;;;4431898;28;656957;-66
2021/05/18 12:49:26;;;;;;;6.30;3.23;;;16.30;99.90;;;;;;4443509;28;656354;-67
2021/05/18 12:52:17;;;;;;;4.27;3.60;;;16.40;99.90;;;;;;4420771;28;656637;-67
2021/05/18 12:55:13;;;;;;;5.70;3.27;;;16.50;99.90;;;;;;4447691;28;657417;-67
2021/05/18 12:58:00;;;;;;;4.03;3.60;;;16.50;99.90;;;;;;4418139;28;657155;-67
2021/05/18 13:00:48;;;;;;;6.03;4.30;;;16.50;99.90;;;;;;4412214;28;656317;-66
2021/05/18 13:03:35;;;;;;;5.27;3.90;;;16.20;99.90;;;;;;4431156;28;657884;-66
2021/05/18 13:06:27;;;;;;;3.83;3.43;;;15.80;99.90;;;;;;4422975;28;656779;-67
2021/05/18 13:09:56;;;;;;;5.10;3.53;;;15.20;99.90;;;;;;4447933;28;656689;-65
2021/05/18 13:12:43;;;;;;;6.90;3.63;;;14.80;99.90;;;;;;4411726;28;656903;-66
2021/05/18 13:15:30;;;;;;;5.53;4.13;;;14.60;99.90;;;;;;4430782;28;657307;-66
2021/05/18 13:18:18;;;;;;;8.50;4.37;;;14.30;99.90;;;;;;4411086;28;656869;-67
2021/05/18 13:21:05;;;;;;;7.93;4.53;;;14.20;99.90;;;;;;4430521;28;657028;-66
2021/05/18 13:24:22;;;;;;;9.40;4.23;;;14.30;99.90;;;;;;4411072;28;656561;-67
2021/05/18 13:27:09;;;;;;;5.53;3.40;;;14.40;99.90;;;;;;4410686;28;656650;-67
2021/05/18 13:29:57;;;;;;;7.47;2.97;;;14.50;99.90;;;;;;4430044;28;656608;-66
2021/05/18 13:32:47;;;;;;;3.07;2.67;;;14.60;99.90;;;;;;4407899;28;657701;-66
2021/05/18 13:35:34;;;;;;;3.20;2.40;;;14.60;99.90;;;;;;4407119;28;658128;-66
2021/05/18 13:38:22;;;;;;;5.00;2.30;;;14.50;99.90;;;;;;4419941;28;656831;-67
2021/05/18 13:41:09;;;;;;;7.53;2.00;;;14.40;99.90;;;;;;4397485;28;657343;-66
2021/05/18 13:43:57;;;;;;;4.13;2.17;;;14.30;99.90;;;;;;4429618;28;656815;-66
2021/05/18 13:46:46;;;;;;;3.37;2.60;;;14.10;99.90;;;;;;4410981;28;656539;-65
2021/05/18 13:49:33;;;;;;;6.50;2.53;;;14.10;99.90;;;;;;4410721;28;656570;-67
2021/05/18 13:52:20;;;;;;;6.83;3.07;;;14.10;99.90;;;;;;4419534;28;657654;-66
2021/05/18 13:55:09;;;;;;;4.50;2.57;;;14.10;99.90;;;;;;4411450;28;657129;-67
2021/05/18 13:57:57;;;;;;;4.20;2.57;;;14.10;99.90;;;;;;4429484;28;656408;-66
2021/05/18 14:00:46;;;;;;;4.53;2.60;;;14.20;99.90;;;;;;4406615;28;657361;-66
2021/05/18 14:03:34;;;;;;;3.83;2.53;;;14.40;99.90;;;;;;4410303;28;656442;-66
2021/05/18 14:06:22;;;;;;;8.50;2.90;;;14.50;99.90;;;;;;4429920;28;656359;-66
2021/05/18 14:09:10;;;;;;;10.10;2.00;;;14.50;99.90;;;;;;4410914;28;656997;-66
2021/05/18 14:11:58;;;;;;;4.30;2.50;;;14.60;99.90;;;;;;4417214;28;657532;-68
2021/05/18 14:14:46;;;;;;;3.73;2.30;;;14.90;99.90;;;;;;4430843;28;656915;-66
2021/05/18 14:17:35;;;;;;;5.73;2.10;;;15.10;99.90;;;;;;4408891;28;656628;-66
2021/05/18 14:20:25;;;;;;;2.00;1.73;;;15.40;99.90;;;;;;4424313;28;656863;-68
2021/05/18 14:23:13;;;;;;;2.93;1.60;;;15.90;99.90;;;;;;4424991;28;656415;-67
2021/05/18 14:26:01;;;;;;;6.03;2.00;;;16.40;99.90;;;;;;4429893;28;656342;-67
2021/05/18 14:28:50;;;;;;;7.60;1.90;;;16.70;99.90;;;;;;4411070;28;656880;-66
2021/05/18 14:31:38;;;;;;;4.47;2.10;;;17.10;99.90;;;;;;4411954;28;656492;-68
2021/05/18 14:34:27;;;;;;;3.33;1.40;;;17.50;99.90;;;;;;4432375;28;657307;-66
2021/05/18 14:37:17;;;;;;;3.28;1.60;;;17.80;99.90;;;;;;4414809;28;657185;-67
2021/05/18 14:40:09;;;;;;;3.63;1.63;;;17.80;99.90;;;;;;4414717;28;656901;-66
2021/05/18 14:43:00;;;;;;;3.10;1.50;;;17.80;99.90;;;;;;4409930;28;657005;-66
2021/05/18 14:45:48;;;;;;;2.67;1.47;;;18.00;99.90;;;;;;4391129;28;657162;-67
2021/05/18 14:55:09;;;;;;;3.00;1.80;;;18.90;99.90;;;;;;4334014;28;656590;-65
2021/05/18 14:57:56;;;;;;;3.07;1.73;;;18.70;99.90;;;;;;4356767;28;656161;-67
2021/05/18 15:00:44;;;;;;;4.37;2.00;;;18.30;99.90;;;;;;4360642;28;656632;-67
2021/05/18 15:03:33;;;;;;;7.73;2.37;;;18.30;99.90;;;;;;4378884;28;656628;-67
2021/05/18 15:06:21;;;;;;;5.87;2.63;;;18.40;99.90;;;;;;4356338;28;657177;-66
2021/05/18 15:09:11;;;;;;;5.10;2.17;;;18.30;99.90;;;;;;4360445;28;656473;-67
2021/05/18 15:11:59;;;;;;;5.33;2.43;;;17.80;99.90;;;;;;4360108;28;656938;-66
2021/05/18 15:14:47;;;;;;;3.67;2.00;;;17.40;99.90;;;;;;4379344;28;656185;-66
2021/05/18 15:17:35;;;;;;;3.70;2.20;;;17.40;99.90;;;;;;4356910;28;657757;-66
2021/05/18 15:20:49;;;;;;;8.00;2.13;;;17.40;99.90;;;;;;4360811;28;656477;-66
2021/05/18 15:23:39;;;;;;;5.53;2.40;;;17.50;99.90;;;;;;4356057;28;656602;-66
2021/05/18 15:26:29;;;;;;;3.37;2.03;;;17.60;99.90;;;;;;4356418;28;656947;-67
2021/05/18 15:29:17;;;;;;;4.50;2.47;;;17.60;99.90;;;;;;4385047;28;657479;-66
2021/05/18 15:32:07;;;;;;;4.73;2.27;;;18.00;99.90;;;;;;4413846;28;656788;-66
2021/05/18 15:34:55;;;;;;;3.47;2.03;;;18.80;99.90;;;;;;4413694;28;656786;-66
2021/05/18 15:37:44;;;;;;;10.63;4.50;;;18.20;99.90;;;;;;4419144;28;657219;-68
2021/05/18 15:40:32;;;;;;;6.07;2.40;;;17.30;99.90;;;;;;4430379;28;658311;-65
2021/05/18 15:43:21;;;;;;;7.10;2.67;;;16.60;99.90;;;;;;4409404;28;657510;-66
2021/05/18 15:46:08;;;;;;;8.87;2.00;;;15.90;99.90;;;;;;4413689;28;656289;-65
2021/05/18 15:48:56;;;;;;;4.10;1.70;;;15.10;99.90;;;;;;4431625;28;657538;-66
2021/05/18 15:51:43;;;;;;;4.87;1.80;;;14.50;99.90;;;;;;4412563;28;656543;-65
2021/05/18 15:54:31;;;;;;;4.93;1.83;;;14.10;99.90;;;;;;4431993;28;656829;-65
2021/05/18 15:57:18;;;;;;;6.93;1.93;;;13.90;99.90;;;;;;4410995;28;656674;-66
2021/05/18 16:00:09;;;;;;;3.43;1.73;;;14.00;99.90;;;;;;4431493;28;657717;-65
2021/05/18 16:02:56;;;;;;;4.33;1.50;;;14.10;99.90;;;;;;4408288;28;656683;-66
2021/05/18 16:05:43;;;;;;;9.20;1.90;;;14.20;99.90;;;;;;4411593;28;656604;-66
2021/05/18 16:11:36;;;;;;;4.27;2.40;;;14.20;99.90;;;;;;4408081;28;657010;-66
2021/05/18 16:14:23;;;;;;;6.00;2.80;;;14.00;99.90;;;;;;4413171;28;656569;-66
2021/05/18 16:17:11;;;;;;;10.07;3.17;;;14.00;99.90;;;;;;4434029;28;657791;-66
2021/05/18 16:19:59;;;;;;;8.03;2.47;;;13.90;99.90;;;;;;4411459;28;657407;-66
2021/05/18 16:22:46;;;;;;;5.63;2.80;;;13.80;99.90;;;;;;4432372;28;657808;-66
2021/05/18 16:25:33;;;;;;;6.73;2.23;;;13.90;99.90;;;;;;4413151;28;656882;-66
2021/05/18 16:28:20;;;;;;;5.10;2.33;;;13.90;99.90;;;;;;4431979;28;657585;-65
2021/05/18 16:31:08;;;;;;;6.17;1.83;;;14.10;99.90;;;;;;4428671;28;656936;-67
2021/05/18 16:33:56;;;;;;;4.87;1.77;;;14.50;99.90;;;;;;4431686;28;657896;-66
2021/05/18 16:36:43;;;;;;;3.03;1.80;;;14.90;99.90;;;;;;4413072;28;656380;-66
2021/05/18 16:39:30;;;;;;;2.97;1.73;;;15.50;99.90;;;;;;4436022;28;657122;-66
2021/05/18 16:42:17;;;;;;;4.78;1.65;;;16.30;99.90;;;;;;4412665;28;656335;-67
2021/05/18 16:45:05;;;;;;;6.10;1.77;;;16.60;99.90;;;;;;4431594;28;658501;-65
2021/05/18 16:47:53;;;;;;;6.73;1.70;;;16.20;99.90;;;;;;4412984;28;657052;-68
2021/05/18 16:50:40;;;;;;;4.93;1.83;;;15.70;99.90;;;;;;4438779;28;657637;-66
2021/05/18 16:53:28;;;;;;;4.33;1.70;;;15.20;99.90;;;;;;4412195;28;656828;-66
2021/05/18 16:56:15;;;;;;;4.87;1.87;;;14.70;99.90;;;;;;4431610;28;658380;-66
2021/05/18 16:59:03;;;;;;;3.87;2.40;;;14.50;99.90;;;;;;4423596;28;657365;-67
2021/05/18 17:01:50;;;;;;;3.83;2.20;;;14.30;99.90;;;;;;4435868;28;656849;-66
2021/05/18 17:04:37;;;;;;;6.40;2.50;;;14.10;99.90;;;;;;4413245;28;656480;-68
2021/05/18 17:07:26;;;;;;;4.00;2.30;;;14.00;99.90;;;;;;4435872;28;656624;-65
2021/05/18 17:10:13;;;;;;;11.40;2.63;;;14.00;99.90;;;;;;4413059;28;657074;-75
2021/05/18 17:13:00;;;;;;;5.60;2.90;;;14.00;99.90;;;;;;4432158;28;658135;-75
2021/05/18 17:15:47;;;;;;;9.57;3.40;;;14.00;99.90;;;;;;4423578;28;657055;-74
2021/05/18 17:18:35;;;;;;;10.83;3.43;;;14.20;99.90;;;;;;4440583;28;657006;-74
2021/05/18 17:21:22;;;;;;;8.17;3.77;;;14.40;99.90;;;;;;4432282;28;657313;-75
2021/05/18 17:24:10;;;;;;;8.70;3.90;;;14.40;99.90;;;;;;4417645;28;656390;-75
2021/05/18 17:26:58;;;;;;;8.63;4.03;;;14.10;99.90;;;;;;4414465;28;657025;-75
2021/05/18 17:29:45;;;;;;;8.10;3.97;;;13.70;99.90;;;;;;4428834;28;657157;-74
2021/05/18 17:32:32;;;;;;;9.47;3.87;;;13.50;99.90;;;;;;4409970;28;656657;-75
2021/05/18 17:35:19;;;;;;;7.17;3.17;;;13.30;99.90;;;;;;4429581;28;656966;-75
2021/05/18 17:38:07;;;;;;;7.63;3.83;;;13.20;99.90;;;;;;4433118;28;656489;-75
2021/05/18 17:40:55;;;;;;;6.17;2.87;;;13.00;99.90;;;;;;4410259;28;657091;-74
2021/05/18 17:43:42;;;;;;;9.33;3.90;;;12.90;99.90;;;;;;4410501;28;656486;-74
2021/05/18 17:46:31;;;;;;;9.20;3.90;;;12.70;99.90;;;;;;4432906;28;656343;-75
2021/05/18 17:49:20;;;;;;;8.40;4.30;;;12.60;99.90;;;;;;4405840;28;656927;-75
2021/05/18 17:52:08;;;;;;;9.43;4.00;;;12.60;99.90;;;;;;4409776;28;656236;-75
2021/05/18 17:54:55;;;;;;;9.03;3.83;;;12.60;99.90;;;;;;4428995;28;657609;-75
2021/05/18 17:57:43;;;;;;;9.20;4.10;;;12.50;99.90;;;;;;4421165;28;656539;-75
2021/05/18 18:00:31;;;;;;;11.23;4.33;;;12.30;99.90;;;;;;4428734;28;657348;-74
2021/05/18 18:03:19;;;;;;;9.20;4.23;;;12.30;99.90;;;;;;4408683;28;657649;-75
2021/05/18 18:06:06;;;;;;;8.10;4.50;;;12.20;99.90;;;;;;4429590;28;657739;-74
2021/05/18 18:08:55;;;;;;;11.03;4.53;;;12.00;99.90;;;;;;4412254;28;656705;-74
2021/05/18 18:11:42;;;;;;;14.13;4.30;;;11.90;99.90;;;;;;4416013;28;657364;-74
2021/05/18 18:14:30;;;;;;;8.35;4.45;;;11.80;99.90;;;;;;4435302;28;658088;-74
2021/05/18 18:17:22;;;;;;;9.87;4.40;;;11.70;99.90;;;;;;4413681;28;656664;-74
2021/05/18 18:20:11;;;;;;;9.10;4.53;;;11.50;99.90;;;;;;4413672;28;657253;-74
2021/05/18 18:22:58;;;;;;;11.47;4.43;;;11.40;99.90;;;;;;4414220;28;657086;-74
2021/05/18 18:25:45;;;;;;;11.07;4.60;;;11.30;99.90;;;;;;4435077;28;658519;-74
2021/05/18 18:28:33;;;;;;;8.93;4.40;;;11.20;99.90;;;;;;4415466;28;657717;-74
2021/05/18 18:31:21;;;;;;;11.00;4.87;;;11.10;99.90;;;;;;4432484;28;657458;-74
2021/05/18 18:34:08;;;;;;;7.20;4.30;;;10.90;99.90;;;;;;4411371;28;657624;-74
2021/05/18 18:36:55;;;;;;;10.90;5.80;;;10.90;99.90;;;;;;4432267;28;657196;-74
2021/05/18 18:39:42;;;;;;;10.38;4.50;;;10.80;99.90;;;;;;4414974;28;657477;-74
2021/05/18 18:42:29;;;;;;;14.53;6.63;;;10.80;99.90;;;;;;4435441;28;658044;-74
2021/05/18 18:45:17;;;;;;;11.67;5.93;;;10.80;99.90;;;;;;4434991;28;657961;-74
2021/05/18 18:48:06;;;;;;;15.90;8.30;;;10.80;99.90;;;;;;4412165;28;658039;-74
2021/05/18 18:50:58;;;;;;;16.43;7.40;;;10.70;99.90;;;;;;4411649;28;657347;-74
2021/05/18 18:53:46;;;;;;;15.40;7.13;;;10.70;99.90;;;;;;4411849;28;657764;-74
2021/05/18 18:56:33;;;;;;;13.10;5.57;;;10.70;99.90;;;;;;4412728;28;657766;-75
2021/05/18 18:59:20;;;;;;;16.27;6.00;;;10.60;99.90;;;;;;4419902;28;658308;-74
2021/05/18 19:02:08;;;;;;;13.67;6.27;;;10.50;99.90;;;;;;4422539;28;657930;-74
2021/05/18 19:04:58;;;;;;;16.93;7.40;;;10.40;99.90;;;;;;4430427;28;657891;-74
2021/05/18 19:07:50;;;;;;;15.80;7.90;;;10.40;99.90;;;;;;4407099;28;658972;-75
2021/05/18 19:11:01;;;;;;;18.50;8.93;;;10.30;99.90;;;;;;4401148;28;657743;-74
2021/05/18 19:13:47;;;;;;;17.50;8.27;;;10.30;99.90;;;;;;4384675;28;657913;-74
2021/05/18 19:16:40;;;;;;;16.17;8.25;;;10.20;99.90;;;;;;4434141;28;657650;-74
2021/05/18 19:19:27;;;;;;;13.77;6.87;;;10.20;99.90;;;;;;4410953;28;657703;-75
2021/05/18 19:22:16;;;;;;;18.40;8.13;;;10.10;99.90;;;;;;4434394;28;658528;-75
2021/05/18 19:25:04;;;;;;;17.63;8.47;;;10.00;99.90;;;;;;4411206;28;658338;-74
2021/05/18 19:27:53;;;;;;;15.10;8.43;;;10.00;99.90;;;;;;4429988;28;658037;-75
2021/05/18 19:30:42;;;;;;;16.70;8.40;;;9.90;99.90;;;;;;4407195;28;658074;-75
2021/05/18 19:33:29;;;;;;;14.77;8.33;;;9.80;99.90;;;;;;4408933;28;657837;-74
2021/05/18 19:47:44;;;;;;;14.97;9.00;;;9.70;99.90;;;;;;4391902;28;656759;-74
2021/05/18 19:49:07;;;;;;;20.63;8.57;;;9.60;99.90;;;;;;4388081;28;656730;-74
2021/05/18 19:51:54;;;;;;;22.00;8.80;;;9.60;99.90;;;;;;4411566;28;657258;-75